sensor_id;sensor_type;location;lat;lon;timestamp;P1;durP1;ratioP1;P2;durP2;ratioP2
6209;SDS011;3138;52.550;13.148;2024-03-23T00:55:35;26.07;;;5.43;;
6209;SDS011;3138;52.550;13.148;2024-03-23T00:58:02;21.37;;;4.23;;
6209;SDS011;3138;52.550;13.148;2024-03-23T01:00:28;27.97;;;4.87;;
6209;SDS011;3138;52.550;13.148;2024-03-23T01:02:55;28.10;;;4.80;;
6209;SDS011;3138;52.550;13.148;2024-03-23T01:05:21;35.37;;;5.23;;
6209;SDS011;3138;52.550;13.148;2024-03-23T01:07:48;21.97;;;5.10;;
6209;SDS011;3138;52.550;13.148;2024-03-23T01:10:15;27.63;;;5.17;;
6209;SDS011;3138;52.550;13.148;2024-03-23T01:12:42;52.47;;;6.00;;
6209;SDS011;3138;52.550;13.148;2024-03-23T01:15:08;32.03;;;5.60;;
6209;SDS011;3138;52.550;13.148;2024-03-23T01:17:35;35.20;;;6.30;;
6209;SDS011;3138;52.550;13.148;2024-03-23T01:20:01;38.23;;;5.87;;
6209;SDS011;3138;52.550;13.148;2024-03-23T01:22:29;35.30;;;5.10;;
6209;SDS011;3138;52.550;13.148;2024-03-23T01:24:55;45.53;;;5.13;;
6209;SDS011;3138;52.550;13.148;2024-03-23T01:27:23;43.20;;;5.20;;
6209;SDS011;3138;52.550;13.148;2024-03-23T01:29:49;14.03;;;4.07;;
6209;SDS011;3138;52.550;13.148;2024-03-23T01:32:17;27.30;;;4.43;;
6209;SDS011;3138;52.550;13.148;2024-03-23T01:34:43;32.07;;;5.40;;
6209;SDS011;3138;52.550;13.148;2024-03-23T01:37:10;39.80;;;5.60;;
6209;SDS011;3138;52.550;13.148;2024-03-23T01:39:36;40.80;;;5.17;;
6209;SDS011;3138;52.550;13.148;2024-03-23T01:42:03;22.73;;;4.07;;
6209;SDS011;3138;52.550;13.148;2024-03-23T01:44:30;28.13;;;4.90;;
6209;SDS011;3138;52.550;13.148;2024-03-23T01:46:57;41.97;;;6.73;;
6209;SDS011;3138;52.550;13.148;2024-03-23T01:49:23;27.00;;;5.60;;
6209;SDS011;3138;52.550;13.148;2024-03-23T01:51:50;38.13;;;5.30;;
6209;SDS011;3138;52.550;13.148;2024-03-23T01:54:16;17.30;;;4.30;;
6209;SDS011;3138;52.550;13.148;2024-03-23T01:56:43;39.47;;;5.10;;
6209;SDS011;3138;52.550;13.148;2024-03-23T01:59:09;33.83;;;5.03;;
6209;SDS011;3138;52.550;13.148;2024-03-23T02:01:38;32.37;;;4.90;;
6209;SDS011;3138;52.550;13.148;2024-03-23T02:04:03;27.97;;;4.90;;
6209;SDS011;3138;52.550;13.148;2024-03-23T02:06:31;27.93;;;5.60;;
6209;SDS011;3138;52.550;13.148;2024-03-23T02:08:57;24.00;;;4.53;;
6209;SDS011;3138;52.550;13.148;2024-03-23T02:11:24;35.10;;;4.93;;
6209;SDS011;3138;52.550;13.148;2024-03-23T02:13:50;42.97;;;5.20;;
6209;SDS011;3138;52.550;13.148;2024-03-23T02:16:17;26.17;;;5.97;;
6209;SDS011;3138;52.550;13.148;2024-03-23T02:18:44;28.97;;;4.87;;
6209;SDS011;3138;52.550;13.148;2024-03-23T02:21:11;28.83;;;5.03;;
6209;SDS011;3138;52.550;13.148;2024-03-23T02:23:38;36.07;;;5.50;;
6209;SDS011;3138;52.550;13.148;2024-03-23T02:26:05;26.00;;;6.23;;
6209;SDS011;3138;52.550;13.148;2024-03-23T02:28:31;24.63;;;4.50;;
6209;SDS011;3138;52.550;13.148;2024-03-23T02:30:57;30.53;;;4.90;;
6209;SDS011;3138;52.550;13.148;2024-03-23T02:33:25;22.00;;;4.50;;
6209;SDS011;3138;52.550;13.148;2024-03-23T02:35:55;19.53;;;4.43;;
6209;SDS011;3138;52.550;13.148;2024-03-23T02:38:21;23.83;;;4.43;;
6209;SDS011;3138;52.550;13.148;2024-03-23T02:40:49;28.00;;;5.13;;
6209;SDS011;3138;52.550;13.148;2024-03-23T02:43:15;39.87;;;5.27;;
6209;SDS011;3138;52.550;13.148;2024-03-23T02:45:42;21.40;;;4.70;;
6209;SDS011;3138;52.550;13.148;2024-03-23T02:48:08;18.60;;;4.00;;
6209;SDS011;3138;52.550;13.148;2024-03-23T02:50:35;17.63;;;4.60;;
6209;SDS011;3138;52.550;13.148;2024-03-23T02:53:01;22.13;;;5.40;;
6209;SDS011;3138;52.550;13.148;2024-03-23T02:55:28;29.80;;;5.60;;
6209;SDS011;3138;52.550;13.148;2024-03-23T02:57:56;32.57;;;5.93;;
6209;SDS011;3138;52.550;13.148;2024-03-23T03:00:26;34.60;;;5.87;;
6209;SDS011;3138;52.550;13.148;2024-03-23T03:02:52;27.37;;;4.83;;
6209;SDS011;3138;52.550;13.148;2024-03-23T03:05:19;31.73;;;5.20;;
6209;SDS011;3138;52.550;13.148;2024-03-23T03:07:45;24.20;;;4.63;;
6209;SDS011;3138;52.550;13.148;2024-03-23T03:10:12;31.53;;;4.93;;
6209;SDS011;3138;52.550;13.148;2024-03-23T03:12:38;26.60;;;4.07;;
6209;SDS011;3138;52.550;13.148;2024-03-23T03:15:06;19.13;;;5.70;;
6209;SDS011;3138;52.550;13.148;2024-03-23T03:17:34;32.93;;;5.83;;
6209;SDS011;3138;52.550;13.148;2024-03-23T03:20:01;32.23;;;4.53;;
6209;SDS011;3138;52.550;13.148;2024-03-23T03:22:27;14.10;;;4.23;;
6209;SDS011;3138;52.550;13.148;2024-03-23T03:24:54;38.27;;;5.60;;
6209;SDS011;3138;52.550;13.148;2024-03-23T03:27:20;27.87;;;4.70;;
6209;SDS011;3138;52.550;13.148;2024-03-23T03:29:47;33.33;;;4.67;;
6209;SDS011;3138;52.550;13.148;2024-03-23T03:32:14;30.77;;;5.70;;
6209;SDS011;3138;52.550;13.148;2024-03-23T03:34:41;17.50;;;4.77;;
6209;SDS011;3138;52.550;13.148;2024-03-23T03:37:07;25.00;;;4.50;;
6209;SDS011;3138;52.550;13.148;2024-03-23T03:39:34;24.10;;;5.70;;
6209;SDS011;3138;52.550;13.148;2024-03-23T03:42:00;25.33;;;4.57;;
6209;SDS011;3138;52.550;13.148;2024-03-23T03:44:29;48.20;;;6.07;;
6209;SDS011;3138;52.550;13.148;2024-03-23T03:46:54;51.73;;;5.87;;
6209;SDS011;3138;52.550;13.148;2024-03-23T03:49:23;32.57;;;4.53;;
6209;SDS011;3138;52.550;13.148;2024-03-23T03:51:48;23.57;;;4.77;;
6209;SDS011;3138;52.550;13.148;2024-03-23T03:54:15;22.33;;;5.37;;
6209;SDS011;3138;52.550;13.148;2024-03-23T03:56:41;31.53;;;5.47;;
6209;SDS011;3138;52.550;13.148;2024-03-23T03:59:08;20.83;;;5.17;;
6209;SDS011;3138;52.550;13.148;2024-03-23T04:01:34;32.60;;;4.87;;
6209;SDS011;3138;52.550;13.148;2024-03-23T04:04:01;32.13;;;5.67;;
6209;SDS011;3138;52.550;13.148;2024-03-23T04:06:28;36.43;;;5.20;;
6209;SDS011;3138;52.550;13.148;2024-03-23T04:08:55;19.60;;;5.03;;
6209;SDS011;3138;52.550;13.148;2024-03-23T04:11:22;21.33;;;4.10;;
6209;SDS011;3138;52.550;13.148;2024-03-23T04:13:47;24.03;;;5.50;;
6209;SDS011;3138;52.550;13.148;2024-03-23T04:16:24;29.43;;;4.80;;
6209;SDS011;3138;52.550;13.148;2024-03-23T04:18:51;22.40;;;5.00;;
6209;SDS011;3138;52.550;13.148;2024-03-23T04:21:19;22.80;;;5.20;;
6209;SDS011;3138;52.550;13.148;2024-03-23T04:23:46;41.50;;;5.77;;
6209;SDS011;3138;52.550;13.148;2024-03-23T04:26:13;25.27;;;4.37;;
6209;SDS011;3138;52.550;13.148;2024-03-23T04:28:39;19.63;;;4.60;;
6209;SDS011;3138;52.550;13.148;2024-03-23T04:31:05;33.70;;;4.60;;
6209;SDS011;3138;52.550;13.148;2024-03-23T04:33:31;23.53;;;4.70;;
6209;SDS011;3138;52.550;13.148;2024-03-23T04:35:58;21.07;;;4.53;;
6209;SDS011;3138;52.550;13.148;2024-03-23T04:38:24;31.33;;;4.33;;
6209;SDS011;3138;52.550;13.148;2024-03-23T04:40:56;25.27;;;4.17;;
6209;SDS011;3138;52.550;13.148;2024-03-23T04:43:23;34.10;;;5.07;;
6209;SDS011;3138;52.550;13.148;2024-03-23T04:45:51;30.73;;;4.77;;
6209;SDS011;3138;52.550;13.148;2024-03-23T04:48:19;8.83;;;2.97;;
6209;SDS011;3138;52.550;13.148;2024-03-23T04:50:47;19.60;;;4.07;;
6209;SDS011;3138;52.550;13.148;2024-03-23T04:53:14;24.57;;;3.47;;
6209;SDS011;3138;52.550;13.148;2024-03-23T04:55:41;24.00;;;4.67;;
6209;SDS011;3138;52.550;13.148;2024-03-23T04:58:09;20.03;;;3.57;;
6209;SDS011;3138;52.550;13.148;2024-03-23T05:00:35;14.23;;;3.77;;
6209;SDS011;3138;52.550;13.148;2024-03-23T05:03:01;22.73;;;3.30;;
6209;SDS011;3138;52.550;13.148;2024-03-23T05:05:28;19.87;;;4.30;;
6209;SDS011;3138;52.550;13.148;2024-03-23T05:07:55;16.60;;;3.40;;
6209;SDS011;3138;52.550;13.148;2024-03-23T05:10:21;9.03;;;2.30;;
6209;SDS011;3138;52.550;13.148;2024-03-23T05:12:47;21.07;;;3.50;;
6209;SDS011;3138;52.550;13.148;2024-03-23T05:15:15;20.27;;;4.37;;
6209;SDS011;3138;52.550;13.148;2024-03-23T05:17:42;10.13;;;3.00;;
6209;SDS011;3138;52.550;13.148;2024-03-23T05:20:08;18.20;;;3.83;;
6209;SDS011;3138;52.550;13.148;2024-03-23T05:22:37;16.87;;;2.90;;
6209;SDS011;3138;52.550;13.148;2024-03-23T05:25:03;15.83;;;2.90;;
6209;SDS011;3138;52.550;13.148;2024-03-23T05:27:31;13.53;;;3.10;;
6209;SDS011;3138;52.550;13.148;2024-03-23T05:29:58;21.00;;;3.03;;
6209;SDS011;3138;52.550;13.148;2024-03-23T05:32:26;16.27;;;3.80;;
6209;SDS011;3138;52.550;13.148;2024-03-23T05:34:53;9.30;;;2.90;;
6209;SDS011;3138;52.550;13.148;2024-03-23T05:37:21;11.83;;;2.67;;
6209;SDS011;3138;52.550;13.148;2024-03-23T05:39:47;10.37;;;2.33;;
6209;SDS011;3138;52.550;13.148;2024-03-23T05:42:14;10.67;;;2.53;;
6209;SDS011;3138;52.550;13.148;2024-03-23T05:44:41;15.30;;;3.00;;
6209;SDS011;3138;52.550;13.148;2024-03-23T05:47:09;14.77;;;2.53;;
6209;SDS011;3138;52.550;13.148;2024-03-23T05:49:37;13.63;;;3.70;;
6209;SDS011;3138;52.550;13.148;2024-03-23T05:52:04;19.93;;;3.77;;
6209;SDS011;3138;52.550;13.148;2024-03-23T05:54:30;16.60;;;3.50;;
6209;SDS011;3138;52.550;13.148;2024-03-23T05:56:56;18.80;;;3.90;;
6209;SDS011;3138;52.550;13.148;2024-03-23T05:59:22;20.80;;;5.60;;
6209;SDS011;3138;52.550;13.148;2024-03-23T06:01:49;19.83;;;4.87;;
6209;SDS011;3138;52.550;13.148;2024-03-23T06:04:15;13.17;;;4.23;;
6209;SDS011;3138;52.550;13.148;2024-03-23T06:06:43;11.10;;;3.47;;
6209;SDS011;3138;52.550;13.148;2024-03-23T06:09:09;9.63;;;3.37;;
6209;SDS011;3138;52.550;13.148;2024-03-23T06:11:36;38.70;;;5.00;;
6209;SDS011;3138;52.550;13.148;2024-03-23T06:14:02;16.00;;;3.50;;
6209;SDS011;3138;52.550;13.148;2024-03-23T06:16:29;17.37;;;3.50;;
6209;SDS011;3138;52.550;13.148;2024-03-23T06:18:55;18.53;;;2.77;;
6209;SDS011;3138;52.550;13.148;2024-03-23T06:21:23;18.03;;;3.43;;
6209;SDS011;3138;52.550;13.148;2024-03-23T06:23:52;8.30;;;2.63;;
6209;SDS011;3138;52.550;13.148;2024-03-23T06:26:19;11.63;;;3.40;;
6209;SDS011;3138;52.550;13.148;2024-03-23T06:28:45;30.67;;;2.80;;
6209;SDS011;3138;52.550;13.148;2024-03-23T06:31:12;19.60;;;4.13;;
6209;SDS011;3138;52.550;13.148;2024-03-23T06:33:39;21.67;;;3.33;;
6209;SDS011;3138;52.550;13.148;2024-03-23T06:36:10;12.43;;;2.73;;
6209;SDS011;3138;52.550;13.148;2024-03-23T06:38:36;17.63;;;3.20;;
6209;SDS011;3138;52.550;13.148;2024-03-23T06:41:04;20.13;;;3.70;;
6209;SDS011;3138;52.550;13.148;2024-03-23T06:43:30;20.27;;;3.47;;
6209;SDS011;3138;52.550;13.148;2024-03-23T06:45:57;25.50;;;4.20;;
6209;SDS011;3138;52.550;13.148;2024-03-23T06:48:23;14.60;;;4.70;;
6209;SDS011;3138;52.550;13.148;2024-03-23T06:50:54;15.20;;;4.57;;
6209;SDS011;3138;52.550;13.148;2024-03-23T06:53:21;21.83;;;4.53;;
6209;SDS011;3138;52.550;13.148;2024-03-23T06:55:49;6.43;;;2.83;;
6209;SDS011;3138;52.550;13.148;2024-03-23T06:58:18;10.67;;;3.80;;
6209;SDS011;3138;52.550;13.148;2024-03-23T07:00:45;9.30;;;3.40;;
6209;SDS011;3138;52.550;13.148;2024-03-23T07:03:11;21.63;;;4.10;;
6209;SDS011;3138;52.550;13.148;2024-03-23T07:05:38;20.13;;;3.53;;
6209;SDS011;3138;52.550;13.148;2024-03-23T07:08:04;14.37;;;3.17;;
6209;SDS011;3138;52.550;13.148;2024-03-23T07:10:31;17.87;;;4.73;;
6209;SDS011;3138;52.550;13.148;2024-03-23T07:12:57;16.43;;;3.30;;
6209;SDS011;3138;52.550;13.148;2024-03-23T07:15:25;17.47;;;4.77;;
6209;SDS011;3138;52.550;13.148;2024-03-23T07:17:51;14.47;;;3.37;;
6209;SDS011;3138;52.550;13.148;2024-03-23T07:20:18;14.17;;;4.07;;
6209;SDS011;3138;52.550;13.148;2024-03-23T07:22:45;27.50;;;4.20;;
6209;SDS011;3138;52.550;13.148;2024-03-23T07:25:12;25.87;;;4.23;;
6209;SDS011;3138;52.550;13.148;2024-03-23T07:27:38;17.27;;;4.20;;
6209;SDS011;3138;52.550;13.148;2024-03-23T07:30:05;10.37;;;2.97;;
6209;SDS011;3138;52.550;13.148;2024-03-23T07:32:34;7.33;;;2.73;;
6209;SDS011;3138;52.550;13.148;2024-03-23T07:35:01;10.43;;;3.20;;
6209;SDS011;3138;52.550;13.148;2024-03-23T07:37:26;12.80;;;2.93;;
6209;SDS011;3138;52.550;13.148;2024-03-23T07:39:53;20.93;;;3.63;;
6209;SDS011;3138;52.550;13.148;2024-03-23T07:42:19;20.13;;;3.30;;
6209;SDS011;3138;52.550;13.148;2024-03-23T07:44:46;14.47;;;2.97;;
6209;SDS011;3138;52.550;13.148;2024-03-23T07:47:12;11.50;;;4.43;;
6209;SDS011;3138;52.550;13.148;2024-03-23T07:49:40;21.70;;;3.03;;
6209;SDS011;3138;52.550;13.148;2024-03-23T07:52:06;17.60;;;4.13;;
6209;SDS011;3138;52.550;13.148;2024-03-23T07:54:34;9.83;;;3.77;;
6209;SDS011;3138;52.550;13.148;2024-03-23T07:56:59;26.40;;;4.43;;
6209;SDS011;3138;52.550;13.148;2024-03-23T07:59:26;15.93;;;3.33;;
6209;SDS011;3138;52.550;13.148;2024-03-23T08:01:53;8.17;;;3.00;;
6209;SDS011;3138;52.550;13.148;2024-03-23T08:04:20;14.53;;;3.10;;
6209;SDS011;3138;52.550;13.148;2024-03-23T08:06:47;16.00;;;3.67;;
6209;SDS011;3138;52.550;13.148;2024-03-23T08:09:14;19.83;;;3.10;;
6209;SDS011;3138;52.550;13.148;2024-03-23T08:11:40;11.13;;;2.73;;
6209;SDS011;3138;52.550;13.148;2024-03-23T08:14:09;14.90;;;3.30;;
6209;SDS011;3138;52.550;13.148;2024-03-23T08:16:35;9.57;;;3.37;;
6209;SDS011;3138;52.550;13.148;2024-03-23T08:19:01;13.03;;;3.37;;
6209;SDS011;3138;52.550;13.148;2024-03-23T08:21:28;13.93;;;2.17;;
6209;SDS011;3138;52.550;13.148;2024-03-23T08:23:57;9.90;;;2.77;;
6209;SDS011;3138;52.550;13.148;2024-03-23T08:26:23;17.13;;;4.33;;
6209;SDS011;3138;52.550;13.148;2024-03-23T08:28:50;6.43;;;2.30;;
6209;SDS011;3138;52.550;13.148;2024-03-23T08:31:15;14.63;;;1.97;;
6209;SDS011;3138;52.550;13.148;2024-03-23T08:33:42;7.07;;;2.33;;
6209;SDS011;3138;52.550;13.148;2024-03-23T08:36:09;14.50;;;2.27;;
6209;SDS011;3138;52.550;13.148;2024-03-23T08:38:39;6.53;;;2.20;;
6209;SDS011;3138;52.550;13.148;2024-03-23T08:41:07;8.97;;;2.57;;
6209;SDS011;3138;52.550;13.148;2024-03-23T08:43:35;10.30;;;2.13;;
6209;SDS011;3138;52.550;13.148;2024-03-23T08:46:05;6.60;;;2.10;;
6209;SDS011;3138;52.550;13.148;2024-03-23T08:48:32;9.50;;;2.90;;
6209;SDS011;3138;52.550;13.148;2024-03-23T08:51:00;7.00;;;1.97;;
6209;SDS011;3138;52.550;13.148;2024-03-23T08:53:27;3.97;;;2.30;;
6209;SDS011;3138;52.550;13.148;2024-03-23T08:55:53;8.10;;;2.00;;
6209;SDS011;3138;52.550;13.148;2024-03-23T08:58:22;22.53;;;1.90;;
6209;SDS011;3138;52.550;13.148;2024-03-23T09:00:49;16.97;;;2.70;;
6209;SDS011;3138;52.550;13.148;2024-03-23T09:03:16;4.53;;;1.70;;
6209;SDS011;3138;52.550;13.148;2024-03-23T09:05:42;9.67;;;2.30;;
6209;SDS011;3138;52.550;13.148;2024-03-23T09:08:09;10.30;;;2.40;;
6209;SDS011;3138;52.550;13.148;2024-03-23T09:10:37;12.30;;;2.60;;
6209;SDS011;3138;52.550;13.148;2024-03-23T09:13:05;10.77;;;3.30;;
6209;SDS011;3138;52.550;13.148;2024-03-23T09:15:33;10.17;;;2.70;;
6209;SDS011;3138;52.550;13.148;2024-03-23T09:18:01;13.47;;;2.10;;
6209;SDS011;3138;52.550;13.148;2024-03-23T09:20:27;13.20;;;2.67;;
6209;SDS011;3138;52.550;13.148;2024-03-23T09:22:54;24.93;;;4.13;;
6209;SDS011;3138;52.550;13.148;2024-03-23T09:25:20;22.83;;;3.47;;
6209;SDS011;3138;52.550;13.148;2024-03-23T09:27:47;16.83;;;3.23;;
6209;SDS011;3138;52.550;13.148;2024-03-23T09:30:13;16.03;;;2.53;;
6209;SDS011;3138;52.550;13.148;2024-03-23T09:32:42;7.13;;;2.40;;
6209;SDS011;3138;52.550;13.148;2024-03-23T09:35:09;13.47;;;2.97;;
6209;SDS011;3138;52.550;13.148;2024-03-23T09:37:36;18.07;;;3.23;;
6209;SDS011;3138;52.550;13.148;2024-03-23T09:40:02;12.97;;;2.47;;
6209;SDS011;3138;52.550;13.148;2024-03-23T09:42:30;11.27;;;3.57;;
6209;SDS011;3138;52.550;13.148;2024-03-23T09:44:56;13.80;;;2.60;;
6209;SDS011;3138;52.550;13.148;2024-03-23T09:47:25;10.33;;;3.03;;
6209;SDS011;3138;52.550;13.148;2024-03-23T09:49:52;16.30;;;3.97;;
6209;SDS011;3138;52.550;13.148;2024-03-23T09:52:19;9.53;;;3.10;;
6209;SDS011;3138;52.550;13.148;2024-03-23T09:54:45;22.97;;;3.37;;
6209;SDS011;3138;52.550;13.148;2024-03-23T09:57:12;13.07;;;3.27;;
6209;SDS011;3138;52.550;13.148;2024-03-23T09:59:38;15.80;;;2.80;;
6209;SDS011;3138;52.550;13.148;2024-03-23T10:02:05;11.90;;;3.57;;
6209;SDS011;3138;52.550;13.148;2024-03-23T10:04:38;30.40;;;3.50;;
6209;SDS011;3138;52.550;13.148;2024-03-23T10:07:13;23.23;;;4.60;;
6209;SDS011;3138;52.550;13.148;2024-03-23T10:09:40;16.93;;;3.87;;
6209;SDS011;3138;52.550;13.148;2024-03-23T10:12:07;16.80;;;2.90;;
6209;SDS011;3138;52.550;13.148;2024-03-23T10:14:34;14.77;;;2.20;;
6209;SDS011;3138;52.550;13.148;2024-03-23T10:17:11;15.17;;;2.83;;
6209;SDS011;3138;52.550;13.148;2024-03-23T10:19:39;13.87;;;2.90;;
6209;SDS011;3138;52.550;13.148;2024-03-23T10:22:06;18.40;;;3.27;;
6209;SDS011;3138;52.550;13.148;2024-03-23T10:24:34;15.27;;;4.57;;
6209;SDS011;3138;52.550;13.148;2024-03-23T10:27:01;13.50;;;4.10;;
6209;SDS011;3138;52.550;13.148;2024-03-23T10:29:27;12.57;;;4.00;;
6209;SDS011;3138;52.550;13.148;2024-03-23T10:31:54;17.40;;;4.37;;
6209;SDS011;3138;52.550;13.148;2024-03-23T10:34:32;10.17;;;3.53;;
6209;SDS011;3138;52.550;13.148;2024-03-23T10:36:59;12.47;;;3.00;;
6209;SDS011;3138;52.550;13.148;2024-03-23T10:39:27;9.27;;;3.50;;
6209;SDS011;3138;52.550;13.148;2024-03-23T10:41:55;12.60;;;4.50;;
6209;SDS011;3138;52.550;13.148;2024-03-23T10:44:22;12.90;;;5.10;;
6209;SDS011;3138;52.550;13.148;2024-03-23T10:46:50;8.27;;;3.57;;
6209;SDS011;3138;52.550;13.148;2024-03-23T10:49:23;10.40;;;3.20;;
6209;SDS011;3138;52.550;13.148;2024-03-23T10:51:51;9.93;;;3.50;;
6209;SDS011;3138;52.550;13.148;2024-03-23T10:54:17;11.90;;;3.40;;
6209;SDS011;3138;52.550;13.148;2024-03-23T10:56:45;11.73;;;3.77;;
6209;SDS011;3138;52.550;13.148;2024-03-23T10:59:14;14.83;;;3.63;;
6209;SDS011;3138;52.550;13.148;2024-03-23T11:01:53;9.17;;;3.30;;
6209;SDS011;3138;52.550;13.148;2024-03-23T11:04:28;12.20;;;4.60;;
6209;SDS011;3138;52.550;13.148;2024-03-23T11:06:56;8.50;;;3.33;;
6209;SDS011;3138;52.550;13.148;2024-03-23T11:09:41;6.17;;;2.43;;
6209;SDS011;3138;52.550;13.148;2024-03-23T11:12:26;13.03;;;3.33;;
6209;SDS011;3138;52.550;13.148;2024-03-23T11:14:55;16.63;;;2.47;;
6209;SDS011;3138;52.550;13.148;2024-03-23T11:17:24;13.40;;;3.60;;
6209;SDS011;3138;52.550;13.148;2024-03-23T11:19:54;15.80;;;1.80;;
6209;SDS011;3138;52.550;13.148;2024-03-23T11:22:37;7.80;;;2.60;;
6209;SDS011;3138;52.550;13.148;2024-03-23T11:25:11;10.30;;;3.00;;
6209;SDS011;3138;52.550;13.148;2024-03-23T11:27:43;14.50;;;3.10;;
6209;SDS011;3138;52.550;13.148;2024-03-23T11:30:12;14.07;;;2.73;;
6209;SDS011;3138;52.550;13.148;2024-03-23T11:32:40;11.50;;;2.50;;
6209;SDS011;3138;52.550;13.148;2024-03-23T11:35:06;13.60;;;2.87;;
6209;SDS011;3138;52.550;13.148;2024-03-23T11:37:35;16.30;;;2.90;;
6209;SDS011;3138;52.550;13.148;2024-03-23T11:40:14;13.37;;;2.80;;
6209;SDS011;3138;52.550;13.148;2024-03-23T11:42:43;13.93;;;3.13;;
6209;SDS011;3138;52.550;13.148;2024-03-23T11:45:09;7.17;;;2.50;;
6209;SDS011;3138;52.550;13.148;2024-03-23T11:47:39;17.30;;;2.80;;
6209;SDS011;3138;52.550;13.148;2024-03-23T11:50:05;12.47;;;2.43;;
6209;SDS011;3138;52.550;13.148;2024-03-23T11:52:32;11.80;;;3.33;;
6209;SDS011;3138;52.550;13.148;2024-03-23T11:55:03;20.17;;;3.30;;
6209;SDS011;3138;52.550;13.148;2024-03-23T11:57:32;21.73;;;2.93;;
6209;SDS011;3138;52.550;13.148;2024-03-23T11:59:58;16.23;;;2.90;;
6209;SDS011;3138;52.550;13.148;2024-03-23T12:02:27;13.43;;;2.40;;
6209;SDS011;3138;52.550;13.148;2024-03-23T12:04:53;16.00;;;4.47;;
6209;SDS011;3138;52.550;13.148;2024-03-23T12:07:20;25.07;;;4.20;;
6209;SDS011;3138;52.550;13.148;2024-03-23T12:09:47;21.10;;;3.93;;
6209;SDS011;3138;52.550;13.148;2024-03-23T12:12:28;15.17;;;3.33;;
6209;SDS011;3138;52.550;13.148;2024-03-23T12:15:01;22.73;;;4.80;;
6209;SDS011;3138;52.550;13.148;2024-03-23T12:17:29;22.40;;;4.03;;
6209;SDS011;3138;52.550;13.148;2024-03-23T12:19:56;16.00;;;3.00;;
6209;SDS011;3138;52.550;13.148;2024-03-23T12:22:22;11.70;;;3.47;;
6209;SDS011;3138;52.550;13.148;2024-03-23T12:24:49;12.33;;;3.10;;
6209;SDS011;3138;52.550;13.148;2024-03-23T12:27:15;21.40;;;3.90;;
6209;SDS011;3138;52.550;13.148;2024-03-23T12:29:42;24.40;;;3.90;;
6209;SDS011;3138;52.550;13.148;2024-03-23T12:32:10;12.90;;;4.00;;
6209;SDS011;3138;52.550;13.148;2024-03-23T12:34:39;17.80;;;4.30;;
6209;SDS011;3138;52.550;13.148;2024-03-23T12:37:07;17.40;;;5.30;;
6209;SDS011;3138;52.550;13.148;2024-03-23T12:39:34;20.97;;;3.43;;
6209;SDS011;3138;52.550;13.148;2024-03-23T12:42:00;15.70;;;3.57;;
6209;SDS011;3138;52.550;13.148;2024-03-23T12:44:29;17.83;;;3.63;;
6209;SDS011;3138;52.550;13.148;2024-03-23T12:46:55;21.87;;;3.20;;
6209;SDS011;3138;52.550;13.148;2024-03-23T12:49:21;14.97;;;3.30;;
6209;SDS011;3138;52.550;13.148;2024-03-23T12:51:53;20.67;;;4.40;;
6209;SDS011;3138;52.550;13.148;2024-03-23T12:54:21;15.17;;;3.50;;
6209;SDS011;3138;52.550;13.148;2024-03-23T12:56:47;10.73;;;2.60;;
6209;SDS011;3138;52.550;13.148;2024-03-23T12:59:14;19.17;;;3.60;;
6209;SDS011;3138;52.550;13.148;2024-03-23T13:01:41;10.10;;;2.80;;
6209;SDS011;3138;52.550;13.148;2024-03-23T13:04:08;17.77;;;3.23;;
6209;SDS011;3138;52.550;13.148;2024-03-23T13:06:34;13.90;;;3.27;;
6209;SDS011;3138;52.550;13.148;2024-03-23T13:09:03;11.17;;;3.63;;
6209;SDS011;3138;52.550;13.148;2024-03-23T13:11:30;7.67;;;2.90;;
6209;SDS011;3138;52.550;13.148;2024-03-23T13:13:56;12.20;;;3.50;;
6209;SDS011;3138;52.550;13.148;2024-03-23T13:16:22;16.63;;;3.23;;
6209;SDS011;3138;52.550;13.148;2024-03-23T13:18:49;12.70;;;3.30;;
6209;SDS011;3138;52.550;13.148;2024-03-23T13:21:16;22.57;;;3.80;;
6209;SDS011;3138;52.550;13.148;2024-03-23T13:23:46;10.60;;;2.73;;
6209;SDS011;3138;52.550;13.148;2024-03-23T13:26:14;23.13;;;4.00;;
6209;SDS011;3138;52.550;13.148;2024-03-23T13:28:41;13.47;;;3.60;;
6209;SDS011;3138;52.550;13.148;2024-03-23T13:31:07;24.10;;;3.83;;
6209;SDS011;3138;52.550;13.148;2024-03-23T13:33:34;23.03;;;4.97;;
6209;SDS011;3138;52.550;13.148;2024-03-23T13:35:59;25.37;;;4.57;;
6209;SDS011;3138;52.550;13.148;2024-03-23T13:38:27;11.90;;;3.40;;
6209;SDS011;3138;52.550;13.148;2024-03-23T13:40:53;20.13;;;5.20;;
6209;SDS011;3138;52.550;13.148;2024-03-23T13:43:22;16.17;;;5.07;;
6209;SDS011;3138;52.550;13.148;2024-03-23T13:45:49;27.07;;;5.00;;
6209;SDS011;3138;52.550;13.148;2024-03-23T13:48:19;16.67;;;5.47;;
6209;SDS011;3138;52.550;13.148;2024-03-23T13:50:46;19.53;;;5.20;;
6209;SDS011;3138;52.550;13.148;2024-03-23T13:53:13;15.23;;;4.57;;
6209;SDS011;3138;52.550;13.148;2024-03-23T13:55:45;25.40;;;5.30;;
6209;SDS011;3138;52.550;13.148;2024-03-23T13:58:13;16.70;;;4.73;;
6209;SDS011;3138;52.550;13.148;2024-03-23T14:00:40;12.20;;;4.53;;
6209;SDS011;3138;52.550;13.148;2024-03-23T14:03:08;22.97;;;4.60;;
6209;SDS011;3138;52.550;13.148;2024-03-23T14:05:34;14.73;;;4.50;;
6209;SDS011;3138;52.550;13.148;2024-03-23T14:08:03;25.03;;;4.90;;
6209;SDS011;3138;52.550;13.148;2024-03-23T14:10:30;23.33;;;6.07;;
6209;SDS011;3138;52.550;13.148;2024-03-23T14:12:56;20.10;;;4.47;;
6209;SDS011;3138;52.550;13.148;2024-03-23T14:15:22;16.13;;;5.23;;
6209;SDS011;3138;52.550;13.148;2024-03-23T14:17:50;9.87;;;2.80;;
6209;SDS011;3138;52.550;13.148;2024-03-23T14:20:16;14.53;;;3.00;;
6209;SDS011;3138;52.550;13.148;2024-03-23T14:22:43;11.83;;;3.03;;
6209;SDS011;3138;52.550;13.148;2024-03-23T14:25:09;17.67;;;3.63;;
6209;SDS011;3138;52.550;13.148;2024-03-23T14:27:36;24.63;;;4.60;;
6209;SDS011;3138;52.550;13.148;2024-03-23T14:30:02;18.17;;;3.33;;
6209;SDS011;3138;52.550;13.148;2024-03-23T14:32:31;17.10;;;4.50;;
6209;SDS011;3138;52.550;13.148;2024-03-23T14:35:00;21.97;;;4.30;;
6209;SDS011;3138;52.550;13.148;2024-03-23T14:37:27;14.43;;;4.63;;
6209;SDS011;3138;52.550;13.148;2024-03-23T14:39:55;11.27;;;3.67;;
6209;SDS011;3138;52.550;13.148;2024-03-23T14:42:21;21.73;;;5.47;;
6209;SDS011;3138;52.550;13.148;2024-03-23T14:44:48;19.73;;;3.70;;
6209;SDS011;3138;52.550;13.148;2024-03-23T14:47:16;12.13;;;4.17;;
6209;SDS011;3138;52.550;13.148;2024-03-23T14:49:42;18.20;;;3.93;;
6209;SDS011;3138;52.550;13.148;2024-03-23T14:52:13;12.00;;;3.70;;
6209;SDS011;3138;52.550;13.148;2024-03-23T14:54:39;17.43;;;3.67;;
6209;SDS011;3138;52.550;13.148;2024-03-23T14:57:06;8.70;;;3.33;;
6209;SDS011;3138;52.550;13.148;2024-03-23T14:59:32;5.90;;;3.27;;
6209;SDS011;3138;52.550;13.148;2024-03-23T15:01:59;10.77;;;3.00;;
6209;SDS011;3138;52.550;13.148;2024-03-23T15:04:25;13.43;;;2.80;;
6209;SDS011;3138;52.550;13.148;2024-03-23T15:06:52;5.40;;;2.27;;
6209;SDS011;3138;52.550;13.148;2024-03-23T15:09:19;11.47;;;3.37;;
6209;SDS011;3138;52.550;13.148;2024-03-23T15:11:46;6.40;;;2.50;;
6209;SDS011;3138;52.550;13.148;2024-03-23T15:14:11;2.50;;;2.20;;
6209;SDS011;3138;52.550;13.148;2024-03-23T15:16:38;7.73;;;2.90;;
6209;SDS011;3138;52.550;13.148;2024-03-23T15:19:04;9.07;;;3.10;;
6209;SDS011;3138;52.550;13.148;2024-03-23T15:21:31;4.00;;;3.00;;
6209;SDS011;3138;52.550;13.148;2024-03-23T15:23:57;11.37;;;3.93;;
6209;SDS011;3138;52.550;13.148;2024-03-23T15:26:25;7.27;;;2.00;;
6209;SDS011;3138;52.550;13.148;2024-03-23T15:28:51;12.77;;;3.60;;
6209;SDS011;3138;52.550;13.148;2024-03-23T15:31:35;4.97;;;2.43;;
6209;SDS011;3138;52.550;13.148;2024-03-23T15:34:01;14.87;;;4.00;;
6209;SDS011;3138;52.550;13.148;2024-03-23T15:36:28;24.37;;;3.37;;
6209;SDS011;3138;52.550;13.148;2024-03-23T15:38:54;3.20;;;2.90;;
6209;SDS011;3138;52.550;13.148;2024-03-23T15:41:21;12.57;;;3.37;;
6209;SDS011;3138;52.550;13.148;2024-03-23T15:43:50;5.60;;;3.00;;
6209;SDS011;3138;52.550;13.148;2024-03-23T15:46:17;7.13;;;3.20;;